Time;durP1;ratioP1;P1;durP2;ratioP2;P2;SDS_P1;SDS_P2;PMS_P1;PMS_P2;Temp;Humidity;BMP_temperature;BMP_pressure;BME280_temperature;BME280_humidity;BME280_pressure;Samples;Min_cycle;Max_cycle;Signal;HPM_P1;HPM_P2
2024/03/17 00:01:02;;;;;;;3.00;2.50;;;;;;;;;;5109586;28;20111;-75
2024/03/17 00:03:29;;;;;;;5.07;2.65;;;;;;;;;;5093012;28;20028;-72
2024/03/17 00:05:59;;;;;;;6.10;3.67;;;;;;;;;;5075369;28;20054;-73
2024/03/17 00:08:26;;;;;;;3.22;2.53;;;;;;;;;;5102962;28;20032;-74
2024/03/17 00:10:53;;;;;;;3.47;2.47;;;;;;;;;;5105189;28;20020;-73
2024/03/17 00:13:19;;;;;;;3.58;2.60;;;;;;;;;;5108057;28;20153;-73
2024/03/17 00:15:49;;;;;;;2.80;2.28;;;;;;;;;;5098221;28;20544;-72
2024/03/17 00:18:15;;;;;;;2.97;2.47;;;;;;;;;;5070304;28;20035;-72
2024/03/17 00:20:41;;;;;;;7.50;3.20;;;;;;;;;;5089113;28;20077;-72
2024/03/17 00:23:09;;;;;;;3.78;2.50;;;;;;;;;;5097015;28;20055;-72
2024/03/17 00:25:35;;;;;;;2.30;2.10;;;;;;;;;;5103201;28;20471;-72
2024/03/17 00:28:02;;;;;;;3.22;2.58;;;;;;;;;;5096854;28;20099;-72
2024/03/17 00:30:28;;;;;;;2.70;2.40;;;;;;;;;;5095163;28;20012;-72
2024/03/17 00:32:55;;;;;;;2.85;2.08;;;;;;;;;;5094565;28;20050;-72
2024/03/17 00:35:21;;;;;;;3.08;2.10;;;;;;;;;;5082047;28;20024;-72
2024/03/17 00:37:48;;;;;;;5.85;2.58;;;;;;;;;;5079641;27;20035;-72
2024/03/17 00:40:16;;;;;;;4.50;2.60;;;;;;;;;;5098230;28;20427;-72
2024/03/17 00:42:42;;;;;;;2.47;2.25;;;;;;;;;;5092967;28;20032;-72
2024/03/17 00:45:10;;;;;;;2.40;2.10;;;;;;;;;;5113221;28;20520;-72
2024/03/17 00:47:36;;;;;;;2.85;2.30;;;;;;;;;;5099314;28;20028;-72
2024/03/17 00:50:04;;;;;;;3.10;2.33;;;;;;;;;;5099206;28;20031;-73
2024/03/17 00:52:30;;;;;;;5.05;2.25;;;;;;;;;;5082530;28;20089;-71
2024/03/17 00:54:56;;;;;;;3.15;2.17;;;;;;;;;;5097931;28;20416;-72
2024/03/17 00:57:22;;;;;;;7.20;2.80;;;;;;;;;;5085000;28;20024;-72
2024/03/17 00:59:49;;;;;;;3.65;2.35;;;;;;;;;;5101630;28;20032;-72
2024/03/17 01:02:37;;;;;;;7.60;1.90;;;;;;;;;;5085516;28;20023;-72
2024/03/17 01:05:06;;;;;;;4.60;2.63;;;;;;;;;;5094780;28;20517;-72
2024/03/17 01:07:34;;;;;;;6.15;2.30;;;;;;;;;;5104695;28;20040;-72
2024/03/17 01:10:00;;;;;;;7.05;2.20;;;;;;;;;;5091838;28;20121;-73
2024/03/17 01:12:27;;;;;;;2.30;1.95;;;;;;;;;;5105985;28;20409;-72
2024/03/17 01:14:53;;;;;;;3.63;2.47;;;;;;;;;;5099488;28;20442;-72
2024/03/17 01:17:19;;;;;;;6.65;2.60;;;;;;;;;;5094669;28;20031;-72
2024/03/17 01:19:46;;;;;;;4.25;2.35;;;;;;;;;;5101429;28;20028;-72
2024/03/17 01:22:12;;;;;;;1.98;1.77;;;;;;;;;;5096201;28;20438;-72
2024/03/17 01:24:42;;;;;;;6.82;2.40;;;;;;;;;;5093649;28;20030;-72
2024/03/17 01:27:14;;;;;;;4.10;2.67;;;;;;;;;;5082798;28;20051;-72
2024/03/17 01:29:40;;;;;;;6.88;2.72;;;;;;;;;;5085154;28;20031;-72
2024/03/17 01:32:06;;;;;;;3.58;2.20;;;;;;;;;;5100952;27;20133;-72
2024/03/17 01:34:36;;;;;;;5.40;2.65;;;;;;;;;;5086604;28;20027;-72
2024/03/17 01:37:02;;;;;;;3.90;1.80;;;;;;;;;;5096267;28;20040;-73
2024/03/17 01:39:29;;;;;;;5.20;2.30;;;;;;;;;;5082228;28;20028;-72
2024/03/17 01:41:55;;;;;;;2.90;2.22;;;;;;;;;;5090008;28;20020;-72
2024/03/17 01:44:29;;;;;;;4.82;2.53;;;;;;;;;;5087570;28;20032;-72
2024/03/17 01:46:56;;;;;;;2.05;1.90;;;;;;;;;;5097302;28;20389;-72
2024/03/17 01:49:23;;;;;;;4.85;2.50;;;;;;;;;;5108808;28;20020;-72
2024/03/17 01:51:51;;;;;;;3.90;2.47;;;;;;;;;;5112310;28;20034;-72
2024/03/17 01:54:17;;;;;;;5.72;2.40;;;;;;;;;;5104897;28;20039;-72
2024/03/17 01:56:44;;;;;;;2.88;1.92;;;;;;;;;;5108727;27;20012;-72
2024/03/17 01:59:11;;;;;;;6.93;3.10;;;;;;;;;;5094536;28;20082;-72
2024/03/17 02:01:37;;;;;;;7.38;2.83;;;;;;;;;;5104799;28;20046;-72
2024/03/17 02:04:06;;;;;;;3.42;2.15;;;;;;;;;;5076738;28;20024;-71
2024/03/17 02:06:33;;;;;;;6.75;2.65;;;;;;;;;;5086499;28;20130;-71
2024/03/17 02:08:59;;;;;;;4.70;2.67;;;;;;;;;;5109912;28;20050;-72
2024/03/17 02:11:30;;;;;;;3.20;2.20;;;;;;;;;;5096432;27;20016;-71
2024/03/17 02:13:57;;;;;;;3.00;2.30;;;;;;;;;;5102977;28;20031;-71
2024/03/17 02:16:23;;;;;;;4.18;2.45;;;;;;;;;;5103475;28;20024;-71
2024/03/17 02:18:50;;;;;;;3.92;2.25;;;;;;;;;;5100918;28;20481;-71
2024/03/17 02:21:16;;;;;;;6.60;2.95;;;;;;;;;;5109911;28;20047;-71
2024/03/17 02:23:43;;;;;;;6.50;3.10;;;;;;;;;;5103844;28;20043;-72
2024/03/17 02:26:10;;;;;;;3.08;2.10;;;;;;;;;;5094012;28;20400;-72
2024/03/17 02:28:44;;;;;;;3.78;2.40;;;;;;;;;;5116797;28;20020;-71
2024/03/17 02:31:11;;;;;;;5.90;2.40;;;;;;;;;;5095867;28;20055;-71
2024/03/17 02:33:38;;;;;;;2.33;2.13;;;;;;;;;;5091235;28;20495;-71
2024/03/17 02:36:07;;;;;;;6.22;2.40;;;;;;;;;;5077888;28;20028;-72
2024/03/17 02:41:18;;;;;;;;;;;;;;;;;;5075029;28;20049;-71
2024/03/17 02:43:45;;;;;;;;;;;;;;;;;;5096602;28;20108;-72
2024/03/17 02:46:14;;;;;;;3.47;2.17;;;;;;;;;;5090303;28;19919;-71
2024/03/17 02:48:47;;;;;;;3.05;2.75;;;;;;;;;;5092875;28;20051;-71
2024/03/17 02:51:20;;;;;;;5.28;1.85;;;;;;;;;;5079351;28;20024;-71
2024/03/17 02:53:47;;;;;;;7.80;2.40;;;;;;;;;;5102645;28;20112;-72
2024/03/17 02:56:23;;;;;;;6.60;2.72;;;;;;;;;;5103855;28;20023;-71
2024/03/17 02:58:51;;;;;;;2.03;1.90;;;;;;;;;;5090202;28;20024;-71
2024/03/17 03:01:18;;;;;;;2.40;2.10;;;;;;;;;;5098325;28;20085;-71
2024/03/17 03:03:45;;;;;;;2.67;2.40;;;;;;;;;;5096152;28;20041;-71
2024/03/17 03:06:13;;;;;;;2.60;2.10;;;;;;;;;;5097861;28;20586;-71
2024/03/17 03:08:42;;;;;;;6.15;2.30;;;;;;;;;;5083093;28;20038;-71
2024/03/17 03:11:11;;;;;;;2.22;1.85;;;;;;;;;;5095702;28;20016;-71
2024/03/17 03:13:42;;;;;;;2.22;2.00;;;;;;;;;;5090727;28;20489;-71
2024/03/17 03:16:09;;;;;;;9.23;2.90;;;;;;;;;;5096066;28;20032;-71
2024/03/17 03:18:39;;;;;;;7.07;2.38;;;;;;;;;;5095140;28;20028;-71
2024/03/17 03:21:05;;;;;;;3.83;2.03;;;;;;;;;;5107898;28;20544;-70
2024/03/17 03:23:32;;;;;;;5.10;2.53;;;;;;;;;;5101840;28;20034;-71
2024/03/17 03:25:59;;;;;;;3.78;2.00;;;;;;;;;;5095153;28;20032;-71
2024/03/17 03:28:26;;;;;;;2.22;2.03;;;;;;;;;;5115960;28;20046;-71
2024/03/17 03:31:02;;;;;;;4.05;2.40;;;;;;;;;;5109989;27;20117;-72
2024/03/17 03:33:28;;;;;;;4.63;2.80;;;;;;;;;;5091620;28;20069;-72
2024/03/17 03:35:55;;;;;;;4.45;2.45;;;;;;;;;;5094822;28;20511;-71
2024/03/17 03:38:22;;;;;;;2.72;2.22;;;;;;;;;;5076369;28;20682;-71
2024/03/17 03:40:48;;;;;;;3.13;2.50;;;;;;;;;;5087018;27;20024;-71
2024/03/17 03:43:15;;;;;;;3.53;2.03;;;;;;;;;;5101250;28;20111;-70
2024/03/17 03:45:41;;;;;;;5.72;2.55;;;;;;;;;;5093991;28;20406;-71
2024/03/17 03:48:10;;;;;;;2.58;2.25;;;;;;;;;;5102375;28;20027;-70
2024/03/17 03:50:38;;;;;;;4.15;2.97;;;;;;;;;;5086774;28;20020;-72
2024/03/17 03:53:05;;;;;;;5.32;2.10;;;;;;;;;;5099249;28;20080;-72
2024/03/17 03:55:32;;;;;;;2.38;2.13;;;;;;;;;;5099857;28;20043;-72
2024/03/17 03:57:58;;;;;;;2.08;1.90;;;;;;;;;;5086900;28;20043;-72
2024/03/17 04:00:31;;;;;;;2.20;2.00;;;;;;;;;;5109445;28;20058;-71
2024/03/17 04:02:57;;;;;;;2.30;2.20;;;;;;;;;;5086150;28;20028;-71
2024/03/17 04:05:23;;;;;;;5.65;2.10;;;;;;;;;;5080584;28;20059;-71
2024/03/17 04:07:50;;;;;;;5.68;2.88;;;;;;;;;;5076836;28;20028;-72
2024/03/17 04:10:18;;;;;;;2.28;1.90;;;;;;;;;;5085682;28;20077;-71
2024/03/17 04:12:45;;;;;;;2.67;2.35;;;;;;;;;;5091255;28;20331;-72
2024/03/17 04:15:11;;;;;;;3.42;2.20;;;;;;;;;;5094639;28;20408;-72
2024/03/17 04:17:38;;;;;;;6.30;2.30;;;;;;;;;;5110790;28;20111;-72
2024/03/17 04:20:07;;;;;;;3.60;2.42;;;;;;;;;;5097907;28;20370;-72
2024/03/17 04:22:34;;;;;;;8.27;3.17;;;;;;;;;;5087412;28;20305;-72
2024/03/17 04:25:04;;;;;;;4.47;2.55;;;;;;;;;;5108090;28;20094;-73
2024/03/17 04:27:30;;;;;;;4.43;3.08;;;;;;;;;;5110564;28;20036;-72
2024/03/17 04:29:57;;;;;;;2.47;2.25;;;;;;;;;;5077773;28;20052;-72
2024/03/17 04:32:24;;;;;;;3.72;2.33;;;;;;;;;;5101968;28;20019;-72
2024/03/17 04:34:51;;;;;;;4.38;2.47;;;;;;;;;;5098848;28;20031;-72
2024/03/17 04:37:17;;;;;;;2.88;2.35;;;;;;;;;;5090461;28;20464;-72
2024/03/17 04:39:44;;;;;;;3.20;2.25;;;;;;;;;;5104966;28;20403;-72
2024/03/17 04:42:11;;;;;;;5.05;2.42;;;;;;;;;;5092511;28;20051;-72
2024/03/17 04:44:37;;;;;;;3.00;2.10;;;;;;;;;;5089261;28;20031;-72
2024/03/17 04:47:06;;;;;;;4.60;2.70;;;;;;;;;;5101099;28;20055;-72
2024/03/17 04:49:42;;;;;;;3.38;2.35;;;;;;;;;;5098016;28;20020;-72
2024/03/17 04:52:09;;;;;;;2.63;2.42;;;;;;;;;;5099643;28;20105;-72
2024/03/17 04:54:35;;;;;;;3.50;3.17;;;;;;;;;;5096959;28;20697;-72
2024/03/17 04:57:01;;;;;;;4.72;2.35;;;;;;;;;;5107521;28;20028;-71
2024/03/17 04:59:28;;;;;;;2.65;2.20;;;;;;;;;;5083118;28;20023;-72
2024/03/17 05:01:54;;;;;;;5.20;2.70;;;;;;;;;;5082988;28;20475;-74
2024/03/17 05:04:21;;;;;;;7.20;2.70;;;;;;;;;;5093435;28;20024;-72
2024/03/17 05:06:48;;;;;;;3.58;2.40;;;;;;;;;;5104052;28;20480;-72
2024/03/17 05:09:15;;;;;;;5.75;2.58;;;;;;;;;;5097272;28;20020;-72
2024/03/17 05:11:41;;;;;;;7.13;2.80;;;;;;;;;;5086513;28;20127;-72
2024/03/17 05:14:08;;;;;;;3.55;2.60;;;;;;;;;;5102222;28;20093;-71
2024/03/17 05:16:34;;;;;;;5.70;2.55;;;;;;;;;;5093270;28;20600;-71
2024/03/17 05:19:01;;;;;;;4.72;2.70;;;;;;;;;;5105229;28;20016;-71
2024/03/17 05:21:30;;;;;;;2.28;2.00;;;;;;;;;;5100776;28;20031;-71
2024/03/17 05:24:06;;;;;;;6.03;2.60;;;;;;;;;;5089096;28;20037;-72
2024/03/17 05:26:32;;;;;;;3.42;2.20;;;;;;;;;;5113867;28;20369;-71
2024/03/17 05:28:58;;;;;;;7.65;2.50;;;;;;;;;;5094359;27;20049;-71
2024/03/17 05:31:25;;;;;;;2.70;1.98;;;;;;;;;;5111413;28;20027;-72
2024/03/17 05:33:52;;;;;;;5.30;2.22;;;;;;;;;;5092677;28;20547;-72
2024/03/17 05:36:20;;;;;;;6.40;2.67;;;;;;;;;;5097366;28;20634;-72
2024/03/17 05:38:46;;;;;;;4.80;2.28;;;;;;;;;;5090291;28;20487;-71
2024/03/17 05:41:14;;;;;;;3.03;2.25;;;;;;;;;;5104763;28;20076;-72
2024/03/17 05:43:40;;;;;;;3.88;2.40;;;;;;;;;;5095627;28;20027;-72
2024/03/17 05:46:10;;;;;;;7.78;2.50;;;;;;;;;;5092111;28;20032;-72
2024/03/17 05:48:40;;;;;;;3.72;2.20;;;;;;;;;;5107284;28;20496;-71
2024/03/17 05:51:08;;;;;;;3.58;2.53;;;;;;;;;;5111460;28;20034;-72
2024/03/17 05:53:34;;;;;;;6.57;2.38;;;;;;;;;;5101257;28;20035;-71
2024/03/17 05:56:01;;;;;;;5.93;2.25;;;;;;;;;;5081795;28;20020;-72
2024/03/17 05:58:27;;;;;;;2.17;1.98;;;;;;;;;;5091644;28;20016;-72
2024/03/17 06:00:53;;;;;;;2.92;2.28;;;;;;;;;;5095176;28;20081;-72
2024/03/17 06:03:21;;;;;;;7.50;2.28;;;;;;;;;;5098232;28;20077;-72
2024/03/17 06:05:47;;;;;;;2.95;2.20;;;;;;;;;;5108445;27;20023;-73
2024/03/17 06:08:14;;;;;;;2.33;1.98;;;;;;;;;;5104246;27;20031;-72
2024/03/17 06:10:44;;;;;;;4.60;2.58;;;;;;;;;;5096866;28;20027;-72
2024/03/17 06:13:14;;;;;;;2.75;2.10;;;;;;;;;;5098741;28;20022;-72
2024/03/17 06:15:41;;;;;;;2.00;1.90;;;;;;;;;;5085072;28;20053;-72
2024/03/17 06:18:10;;;;;;;8.88;2.60;;;;;;;;;;5088922;28;20433;-72
2024/03/17 06:20:36;;;;;;;2.53;2.33;;;;;;;;;;5093140;27;20034;-72
2024/03/17 06:23:02;;;;;;;7.75;2.28;;;;;;;;;;5105668;28;20057;-72
2024/03/17 06:25:28;;;;;;;7.18;2.60;;;;;;;;;;5088288;28;20496;-72
2024/03/17 06:27:57;;;;;;;3.25;1.60;;;;;;;;;;5104479;28;20047;-72
2024/03/17 06:30:23;;;;;;;2.72;1.83;;;;;;;;;;5099767;28;20525;-72
2024/03/17 06:32:49;;;;;;;3.97;1.90;;;;;;;;;;5090320;28;20035;-72
2024/03/17 06:35:15;;;;;;;3.83;2.00;;;;;;;;;;5093609;28;20489;-72
2024/03/17 06:37:42;;;;;;;7.80;1.75;;;;;;;;;;5094696;28;20056;-72
2024/03/17 06:40:15;;;;;;;5.15;2.25;;;;;;;;;;5102506;28;20059;-71
2024/03/17 06:42:42;;;;;;;4.07;2.03;;;;;;;;;;5101445;28;20108;-74
2024/03/17 06:45:09;;;;;;;3.50;2.38;;;;;;;;;;5109700;28;20023;-73
2024/03/17 06:47:37;;;;;;;4.22;2.33;;;;;;;;;;5103326;28;20397;-73
2024/03/17 06:50:10;;;;;;;3.60;2.10;;;;;;;;;;5086174;28;20027;-73
2024/03/17 06:52:37;;;;;;;4.72;2.25;;;;;;;;;;5091077;28;20039;-73
2024/03/17 06:55:03;;;;;;;8.23;1.90;;;;;;;;;;5086852;28;20061;-71
2024/03/17 06:57:29;;;;;;;2.55;1.83;;;;;;;;;;5102746;27;20039;-71
2024/03/17 06:59:56;;;;;;;5.50;2.40;;;;;;;;;;5107307;28;20685;-71
2024/03/17 07:02:25;;;;;;;9.20;2.45;;;;;;;;;;5094098;28;20023;-70
2024/03/17 07:04:51;;;;;;;6.10;2.15;;;;;;;;;;5108935;28;20027;-72
2024/03/17 07:07:17;;;;;;;7.22;2.35;;;;;;;;;;5080437;28;20724;-71
2024/03/17 07:09:43;;;;;;;3.67;2.10;;;;;;;;;;5098798;28;20031;-72
2024/03/17 07:12:11;;;;;;;5.85;2.20;;;;;;;;;;5109215;28;20024;-72
2024/03/17 07:14:40;;;;;;;6.18;2.03;;;;;;;;;;5090090;28;20602;-72
2024/03/17 07:17:07;;;;;;;4.15;2.38;;;;;;;;;;5088591;28;20042;-73
2024/03/17 07:19:34;;;;;;;2.83;1.90;;;;;;;;;;5107538;28;20030;-72
2024/03/17 07:22:00;;;;;;;6.28;2.35;;;;;;;;;;5078238;28;20035;-73
2024/03/17 07:24:27;;;;;;;4.65;2.40;;;;;;;;;;5097649;28;20058;-73
2024/03/17 07:26:53;;;;;;;9.98;2.25;;;;;;;;;;5097055;28;20965;-72
2024/03/17 07:29:21;;;;;;;4.82;2.42;;;;;;;;;;5106127;28;20046;-73
2024/03/17 07:31:47;;;;;;;2.60;1.83;;;;;;;;;;5095091;28;20447;-72
2024/03/17 07:34:13;;;;;;;2.95;1.83;;;;;;;;;;5109444;28;20020;-71
2024/03/17 07:36:39;;;;;;;10.13;2.08;;;;;;;;;;5105079;28;20388;-72
2024/03/17 07:39:09;;;;;;;2.50;1.77;;;;;;;;;;5089188;28;20028;-74
2024/03/17 07:41:38;;;;;;;2.05;1.67;;;;;;;;;;5104709;28;20034;-72
2024/03/17 07:44:04;;;;;;;4.40;1.92;;;;;;;;;;5107311;28;20221;-71
2024/03/17 07:46:30;;;;;;;2.42;1.73;;;;;;;;;;5105124;27;20028;-73
2024/03/17 07:48:56;;;;;;;2.15;1.95;;;;;;;;;;5108607;27;20027;-74
2024/03/17 07:51:23;;;;;;;3.95;1.95;;;;;;;;;;5102077;28;20530;-71
2024/03/17 07:53:51;;;;;;;3.78;2.33;;;;;;;;;;5105395;28;20032;-71
2024/03/17 07:56:18;;;;;;;2.95;1.90;;;;;;;;;;5104203;28;20524;-71
2024/03/17 07:58:45;;;;;;;2.70;1.70;;;;;;;;;;5106554;27;20030;-71
2024/03/17 08:01:18;;;;;;;5.13;1.70;;;;;;;;;;5082576;28;20023;-70
2024/03/17 08:03:55;;;;;;;2.50;1.83;;;;;;;;;;5092504;28;20040;-70
2024/03/17 08:06:21;;;;;;;5.53;2.17;;;;;;;;;;5083668;28;20031;-71
2024/03/17 08:08:48;;;;;;;1.67;1.58;;;;;;;;;;5098616;28;20039;-71
2024/03/17 08:11:14;;;;;;;1.80;1.70;;;;;;;;;;5102096;28;20509;-71
2024/03/17 08:13:40;;;;;;;2.35;1.70;;;;;;;;;;5098684;28;20377;-70
2024/03/17 08:16:10;;;;;;;7.43;2.30;;;;;;;;;;5101183;28;20023;-70
2024/03/17 08:18:36;;;;;;;3.90;1.73;;;;;;;;;;5104812;28;20412;-70
2024/03/17 08:21:06;;;;;;;3.90;1.85;;;;;;;;;;5101763;28;20447;-71
2024/03/17 08:23:39;;;;;;;1.77;1.67;;;;;;;;;;5103269;28;20039;-71
2024/03/17 08:26:05;;;;;;;4.32;1.80;;;;;;;;;;5099364;28;20054;-70
2024/03/17 08:28:31;;;;;;;1.92;1.80;;;;;;;;;;5099844;27;20046;-71
2024/03/17 08:30:58;;;;;;;4.55;1.80;;;;;;;;;;5083929;28;20074;-70
2024/03/17 08:33:25;;;;;;;4.63;1.60;;;;;;;;;;5081891;28;20035;-70
2024/03/17 08:35:58;;;;;;;6.38;1.67;;;;;;;;;;5091187;28;20016;-72
2024/03/17 08:38:25;;;;;;;5.10;2.28;;;;;;;;;;5085204;28;20364;-71
2024/03/17 08:40:52;;;;;;;4.97;2.08;;;;;;;;;;5083992;28;20123;-70
2024/03/17 08:43:19;;;;;;;4.75;1.63;;;;;;;;;;5091419;28;20028;-71
2024/03/17 08:45:45;;;;;;;1.95;1.75;;;;;;;;;;5098137;27;20035;-71
2024/03/17 08:48:11;;;;;;;3.47;1.60;;;;;;;;;;5094331;28;20416;-71
2024/03/17 08:50:37;;;;;;;1.45;1.35;;;;;;;;;;5089033;27;20023;-71
2024/03/17 08:53:04;;;;;;;7.53;1.88;;;;;;;;;;5097187;28;20932;-71
2024/03/17 08:55:30;;;;;;;6.38;1.58;;;;;;;;;;5084564;28;20031;-71
2024/03/17 08:57:56;;;;;;;2.65;1.52;;;;;;;;;;5097429;28;20028;-71
2024/03/17 09:00:22;;;;;;;2.65;1.40;;;;;;;;;;5097545;27;20392;-70
2024/03/17 09:02:49;;;;;;;2.80;1.40;;;;;;;;;;5080622;28;22342;-71
2024/03/17 09:05:15;;;;;;;2.95;1.67;;;;;;;;;;5089878;28;20485;-71
2024/03/17 09:07:41;;;;;;;6.38;1.58;;;;;;;;;;5102290;27;20024;-72
2024/03/17 09:10:08;;;;;;;3.28;1.63;;;;;;;;;;5091284;27;20040;-71
2024/03/17 09:12:36;;;;;;;3.83;1.63;;;;;;;;;;5078285;28;20163;-71
2024/03/17 09:15:02;;;;;;;1.10;1.10;;;;;;;;;;5101053;28;20392;-73
2024/03/17 09:17:28;;;;;;;1.23;1.17;;;;;;;;;;5090928;28;20040;-71
2024/03/17 09:19:55;;;;;;;1.58;1.30;;;;;;;;;;5101431;27;20031;-70
2024/03/17 09:22:21;;;;;;;1.48;1.33;;;;;;;;;;5096416;27;20039;-72
2024/03/17 09:24:47;;;;;;;0.98;0.98;;;;;;;;;;5081735;28;20020;-71
2024/03/17 09:27:18;;;;;;;1.50;1.50;;;;;;;;;;5107570;27;20437;-71
2024/03/17 09:29:48;;;;;;;1.58;1.30;;;;;;;;;;5101591;28;20023;-72
2024/03/17 09:32:17;;;;;;;4.95;1.40;;;;;;;;;;5087126;28;20024;-70
2024/03/17 09:34:50;;;;;;;1.05;1.05;;;;;;;;;;5108716;27;20019;-71
2024/03/17 09:37:17;;;;;;;5.82;1.58;;;;;;;;;;5077498;28;20050;-71
2024/03/17 09:39:43;;;;;;;1.67;1.58;;;;;;;;;;5083115;28;20025;-72
2024/03/17 09:42:17;;;;;;;3.53;1.52;;;;;;;;;;5077805;28;20066;-71
2024/03/17 09:44:46;;;;;;;1.08;1.08;;;;;;;;;;5075906;28;20054;-71
2024/03/17 09:47:16;;;;;;;5.32;1.75;;;;;;;;;;5076621;28;20425;-71
2024/03/17 09:49:43;;;;;;;1.48;1.45;;;;;;;;;;5074730;28;20090;-72
2024/03/17 09:52:15;;;;;;;3.83;1.55;;;;;;;;;;5075188;28;20039;-72
2024/03/17 09:54:42;;;;;;;1.20;1.20;;;;;;;;;;5081996;28;20115;-71
2024/03/17 09:57:15;;;;;;;1.25;1.25;;;;;;;;;;5082634;28;20088;-71
2024/03/17 09:59:41;;;;;;;2.80;1.73;;;;;;;;;;5067571;28;20036;-72
2024/03/17 10:02:14;;;;;;;3.85;1.60;;;;;;;;;;5068382;28;20035;-71
2024/03/17 10:04:40;;;;;;;2.25;1.40;;;;;;;;;;5074711;28;20036;-71
2024/03/17 10:07:06;;;;;;;1.85;1.38;;;;;;;;;;5071712;28;20043;-71
2024/03/17 10:09:32;;;;;;;0.93;0.93;;;;;;;;;;5089066;28;20059;-71
2024/03/17 10:11:59;;;;;;;2.13;1.20;;;;;;;;;;5076614;28;21643;-71
2024/03/17 10:14:25;;;;;;;1.77;1.70;;;;;;;;;;5077343;28;20089;-71
2024/03/17 10:16:51;;;;;;;1.90;1.80;;;;;;;;;;5077401;28;20433;-71
2024/03/17 10:19:24;;;;;;;1.95;1.35;;;;;;;;;;5074232;28;20104;-71
2024/03/17 10:21:51;;;;;;;3.40;1.33;;;;;;;;;;5071384;28;20031;-72
2024/03/17 10:24:22;;;;;;;1.45;1.35;;;;;;;;;;5080515;28;20034;-71
2024/03/17 10:26:49;;;;;;;2.83;2.17;;;;;;;;;;5079382;28;20038;-71
2024/03/17 10:29:29;;;;;;;2.58;1.42;;;;;;;;;;5077576;28;20048;-72
2024/03/17 10:31:56;;;;;;;1.35;1.13;;;;;;;;;;5075656;28;20393;-71
2024/03/17 10:34:24;;;;;;;5.10;1.95;;;;;;;;;;5082636;28;20050;-71
2024/03/17 10:36:58;;;;;;;2.85;1.67;;;;;;;;;;5079796;28;20040;-71
2024/03/17 10:39:30;;;;;;;3.38;1.55;;;;;;;;;;5116498;28;20023;-72
2024/03/17 10:42:04;;;;;;;2.25;1.35;;;;;;;;;;5105708;28;20055;-71
2024/03/17 10:44:30;;;;;;;3.13;1.40;;;;;;;;;;5095634;28;20039;-70
2024/03/17 10:46:57;;;;;;;3.60;1.45;;;;;;;;;;5097644;28;20401;-71
2024/03/17 10:49:30;;;;;;;1.40;1.38;;;;;;;;;;5108033;28;20520;-72
2024/03/17 10:52:00;;;;;;;3.42;2.05;;;;;;;;;;5094440;28;20024;-72
2024/03/17 10:54:30;;;;;;;4.75;1.52;;;;;;;;;;5095602;28;20012;-73
2024/03/17 10:56:57;;;;;;;1.38;1.27;;;;;;;;;;5087347;28;20107;-72
2024/03/17 10:59:32;;;;;;;1.58;1.48;;;;;;;;;;5099895;28;20027;-72
2024/03/17 11:02:00;;;;;;;3.45;1.60;;;;;;;;;;5088438;28;20547;-71
2024/03/17 11:04:27;;;;;;;1.88;1.60;;;;;;;;;;5096326;28;20030;-71
2024/03/17 11:06:54;;;;;;;2.55;1.55;;;;;;;;;;5085914;28;20385;-72
2024/03/17 11:09:20;;;;;;;1.45;1.30;;;;;;;;;;5096343;28;20458;-73
2024/03/17 11:11:46;;;;;;;2.00;1.85;;;;;;;;;;5098881;28;20028;-71
2024/03/17 11:14:19;;;;;;;1.45;1.40;;;;;;;;;;5098727;28;20024;-71
2024/03/17 11:16:47;;;;;;;1.63;1.52;;;;;;;;;;5096204;28;20433;-73
2024/03/17 11:19:17;;;;;;;3.25;1.50;;;;;;;;;;5098997;28;20024;-71
2024/03/17 11:21:47;;;;;;;7.97;1.50;;;;;;;;;;5094516;28;20024;-72
2024/03/17 11:24:20;;;;;;;1.70;1.60;;;;;;;;;;5096072;28;20016;-79
2024/03/17 11:26:46;;;;;;;4.30;1.67;;;;;;;;;;5111070;28;20063;-72
2024/03/17 11:29:29;;;;;;;7.63;1.70;;;;;;;;;;5097530;28;20097;-72
2024/03/17 11:31:55;;;;;;;1.90;1.45;;;;;;;;;;5093598;28;20063;-72
2024/03/17 11:34:39;;;;;;;1.73;1.38;;;;;;;;;;5102465;28;20024;-70
2024/03/17 11:37:08;;;;;;;2.22;1.25;;;;;;;;;;5109443;28;20032;-77
2024/03/17 11:39:55;;;;;;;0.93;0.93;;;;;;;;;;5107815;28;20055;-78
2024/03/17 11:42:23;;;;;;;1.63;1.15;;;;;;;;;;5075581;28;20020;-70
2024/03/17 11:44:59;;;;;;;1.60;1.50;;;;;;;;;;5107144;27;20148;-74
2024/03/17 11:47:34;;;;;;;1.27;1.20;;;;;;;;;;5112176;27;20459;-74
2024/03/17 11:50:02;;;;;;;1.73;1.23;;;;;;;;;;5103922;28;20574;-74
2024/03/17 11:52:28;;;;;;;1.35;1.27;;;;;;;;;;5109527;28;20335;-75
2024/03/17 11:54:54;;;;;;;1.10;1.10;;;;;;;;;;5100997;27;20119;-72
2024/03/17 11:57:24;;;;;;;1.40;1.15;;;;;;;;;;5103540;28;20400;-71
2024/03/17 11:59:50;;;;;;;1.40;1.30;;;;;;;;;;5101814;27;20019;-72
2024/03/17 12:02:24;;;;;;;1.83;1.40;;;;;;;;;;5090982;28;20104;-71
2024/03/17 12:04:53;;;;;;;1.30;1.20;;;;;;;;;;5087916;28;20114;-73
2024/03/17 12:07:23;;;;;;;1.80;1.70;;;;;;;;;;5110047;28;20031;-72
2024/03/17 12:09:50;;;;;;;1.00;1.00;;;;;;;;;;5102865;27;20035;-71
2024/03/17 12:12:20;;;;;;;1.60;1.50;;;;;;;;;;5103502;28;21049;-71
2024/03/17 12:14:47;;;;;;;1.30;1.20;;;;;;;;;;5101335;28;20093;-71
2024/03/17 12:17:14;;;;;;;1.40;1.30;;;;;;;;;;5101592;28;20027;-71
2024/03/17 12:19:44;;;;;;;1.10;1.10;;;;;;;;;;5079341;28;20019;-72
2024/03/17 12:22:12;;;;;;;1.48;1.30;;;;;;;;;;5098379;28;20024;-72
2024/03/17 12:24:38;;;;;;;0.98;0.98;;;;;;;;;;5101820;27;20608;-72
2024/03/17 12:27:05;;;;;;;1.23;1.15;;;;;;;;;;5101564;28;20470;-72
2024/03/17 12:29:41;;;;;;;1.60;1.50;;;;;;;;;;5079378;28;20054;-71
2024/03/17 12:32:16;;;;;;;0.80;0.80;;;;;;;;;;5107018;28;20024;-71
2024/03/17 12:34:42;;;;;;;4.70;1.58;;;;;;;;;;5102001;27;20047;-71
2024/03/17 12:37:09;;;;;;;1.17;1.17;;;;;;;;;;5085047;28;20551;-71
2024/03/17 12:39:39;;;;;;;1.50;1.40;;;;;;;;;;5084492;27;20074;-70
2024/03/17 12:42:06;;;;;;;2.10;1.20;;;;;;;;;;5098541;28;20071;-72
2024/03/17 12:44:48;;;;;;;1.50;1.40;;;;;;;;;;5111456;28;20019;-72
2024/03/17 12:47:21;;;;;;;1.27;1.27;;;;;;;;;;5088094;28;20065;-71
2024/03/17 12:49:54;;;;;;;1.23;1.17;;;;;;;;;;5092415;28;20034;-71
2024/03/17 12:52:20;;;;;;;3.25;1.40;;;;;;;;;;5094346;28;20016;-71
2024/03/17 13:00:31;;;;;;;1.65;1.55;;;;;;;;;;5081419;28;20024;-71
2024/03/17 13:00:32;;;;;;;1.33;1.30;;;;;;;;;;5097567;28;20093;-71
2024/03/17 13:02:58;;;;;;;2.20;1.40;;;;;;;;;;5095192;27;20064;-71
2024/03/17 13:05:25;;;;;;;1.50;1.40;;;;;;;;;;5087265;28;20497;-71
2024/03/17 13:07:51;;;;;;;1.23;1.23;;;;;;;;;;5100510;28;20039;-71
2024/03/17 13:10:18;;;;;;;1.10;1.10;;;;;;;;;;5074683;28;20024;-72
2024/03/17 13:12:45;;;;;;;1.17;1.17;;;;;;;;;;5089707;28;20049;-71
2024/03/17 13:15:15;;;;;;;1.20;1.20;;;;;;;;;;5087689;28;20062;-71
2024/03/17 13:17:44;;;;;;;1.17;1.17;;;;;;;;;;5099067;28;20031;-72
2024/03/17 13:20:17;;;;;;;1.13;1.13;;;;;;;;;;5106445;28;20035;-71
2024/03/17 13:22:44;;;;;;;1.10;1.10;;;;;;;;;;5080224;28;20033;-72
2024/03/17 13:25:16;;;;;;;1.20;1.20;;;;;;;;;;5079920;28;20115;-71
2024/03/17 13:27:42;;;;;;;1.20;1.20;;;;;;;;;;5087807;28;20066;-71
2024/03/17 13:30:12;;;;;;;2.47;1.33;;;;;;;;;;5093868;28;20549;-72
2024/03/17 13:32:38;;;;;;;1.15;1.15;;;;;;;;;;5088797;28;20028;-72
2024/03/17 13:35:06;;;;;;;1.30;1.30;;;;;;;;;;5097334;28;20028;-70
2024/03/17 13:37:32;;;;;;;1.10;1.10;;;;;;;;;;5094309;28;20609;-71
2024/03/17 13:40:00;;;;;;;1.25;1.17;;;;;;;;;;5071982;28;20023;-71
2024/03/17 13:42:27;;;;;;;1.25;1.25;;;;;;;;;;5088864;28;20109;-71
2024/03/17 13:44:53;;;;;;;1.10;1.10;;;;;;;;;;5095808;28;20032;-70
2024/03/17 13:47:20;;;;;;;1.35;1.20;;;;;;;;;;5105611;28;20055;-71
2024/03/17 13:49:46;;;;;;;1.33;1.23;;;;;;;;;;5098301;28;20032;-70
2024/03/17 13:52:12;;;;;;;1.30;1.30;;;;;;;;;;5105025;28;20098;-71
2024/03/17 13:54:39;;;;;;;2.60;1.48;;;;;;;;;;5104147;28;20125;-71
2024/03/17 13:57:05;;;;;;;1.23;1.23;;;;;;;;;;5101306;28;20073;-71
2024/03/17 13:59:32;;;;;;;1.73;1.42;;;;;;;;;;5090668;28;20451;-71
2024/03/17 14:01:58;;;;;;;4.68;1.45;;;;;;;;;;5105911;28;20026;-70
2024/03/17 14:04:25;;;;;;;1.48;1.45;;;;;;;;;;5100893;28;20049;-70
2024/03/17 14:06:51;;;;;;;1.25;1.23;;;;;;;;;;5094025;28;20055;-71
2024/03/17 14:09:18;;;;;;;1.10;1.10;;;;;;;;;;5098020;28;20106;-71
2024/03/17 14:11:45;;;;;;;1.50;1.40;;;;;;;;;;5102384;28;20051;-71
2024/03/17 14:14:12;;;;;;;3.47;1.70;;;;;;;;;;5095193;28;20122;-71
2024/03/17 14:16:39;;;;;;;4.97;1.67;;;;;;;;;;5072491;28;20074;-72
2024/03/17 14:19:05;;;;;;;11.38;2.05;;;;;;;;;;5093391;28;20034;-71
2024/03/17 14:21:31;;;;;;;1.52;1.42;;;;;;;;;;5091669;28;20047;-70
2024/03/17 14:23:59;;;;;;;4.63;1.50;;;;;;;;;;5104712;28;20036;-70
2024/03/17 14:26:25;;;;;;;4.85;1.52;;;;;;;;;;5106574;28;20034;-71
2024/03/17 14:28:54;;;;;;;2.95;1.90;;;;;;;;;;5103998;28;20028;-71
2024/03/17 14:31:20;;;;;;;2.25;1.60;;;;;;;;;;5102726;28;20584;-71
2024/03/17 14:33:46;;;;;;;4.20;1.60;;;;;;;;;;5085622;28;20526;-71
2024/03/17 14:36:12;;;;;;;6.03;2.22;;;;;;;;;;5087935;28;20036;-70
2024/03/17 14:38:39;;;;;;;2.13;1.73;;;;;;;;;;5063210;28;20143;-71
2024/03/17 14:41:05;;;;;;;1.95;1.63;;;;;;;;;;5065522;28;20107;-71
2024/03/17 14:43:32;;;;;;;2.58;1.42;;;;;;;;;;5062804;28;20688;-69
2024/03/17 14:45:58;;;;;;;3.17;2.25;;;;;;;;;;5059849;28;20045;-69
2024/03/17 14:48:25;;;;;;;3.30;2.08;;;;;;;;;;5060500;28;20636;-73
2024/03/17 14:50:51;;;;;;;2.05;1.85;;;;;;;;;;5055294;28;20051;-71
2024/03/17 14:53:17;;;;;;;3.72;1.73;;;;;;;;;;5059859;28;20025;-71